Time,TemperatureF,DewpointF,PressureIn,WindDirection,WindDirectionDegrees,WindSpeedMPH,WindSpeedGustMPH,Humidity,HourlyPrecipIn,Conditions,Clouds,dailyrainin,SoftwareType,DateUTC
2013-02-19 00:00:00,28.0,24.4,30.11,North,1,0.0,0.0,86,0.00,SCT,SKC,0.00,WeatherDisplay:10.37,2013-02-18 23:00:00,
2013-02-19 00:05:00,28.0,24.6,30.12,North,1,0.0,0.0,87,0.00,SCT,SKC,0.00,WeatherDisplay:10.37,2013-02-18 23:05:00,
2013-02-19 00:10:00,27.4,24.0,30.11,North,1,0.0,0.0,87,0.00,SCT,SKC,0.00,WeatherDisplay:10.37,2013-02-18 23:10:00,
2013-02-19 00:20:00,27.5,24.1,30.11,North,1,0.0,0.0,87,0.00,SCT,SKC,0.00,WeatherDisplay:10.37,2013-02-18 23:20:00,
2013-02-19 00:25:00,27.5,24.1,30.11,North,1,0.0,0.0,87,0.00,SCT,SKC,0.00,WeatherDisplay:10.37,2013-02-18 23:25:00,
2013-02-19 00:30:00,27.3,24.0,30.11,North,1,0.0,0.0,87,0.00,SCT,SKC,0.00,WeatherDisplay:10.37,2013-02-18 23:30:00,
2013-02-19 00:40:00,27.1,23.8,30.11,North,1,0.0,0.0,87,0.00,SCT,SKC,0.00,WeatherDisplay:10.37,2013-02-18 23:40:00,
2013-02-19 00:50:00,26.8,23.4,30.11,North,1,0.0,0.0,87,0.00,SCT,SKC,0.00,WeatherDisplay:10.37,2013-02-18 23:50:00,
2013-02-19 01:00:00,26.4,23.1,30.10,North,1,0.0,0.0,87,0.00,SCT,SKC,0.00,WeatherDisplay:10.37,2013-02-19 00:00:00,
2013-02-19 01:10:00,26.4,23.1,30.10,North,1,0.0,0.0,87,0.00,SCT,SKC,0.00,WeatherDisplay:10.37,2013-02-19 00:10:00,
2013-02-19 01:20:00,26.4,23.3,30.10,North,1,0.0,0.0,88,0.00,SCT,SKC,0.00,WeatherDisplay:10.37,2013-02-19 00:20:00,
2013-02-19 01:30:00,26.2,23.2,30.10,North,1,0.0,0.0,88,0.00,SCT,SKC,0.00,WeatherDisplay:10.37,2013-02-19 00:30:00,
2013-02-19 01:40:00,26.1,23.0,30.10,North,1,0.0,0.0,88,0.00,SCT,SKC,0.00,WeatherDisplay:10.37,2013-02-19 00:40:00,
2013-02-19 01:45:00,26.1,23.0,30.10,North,1,0.0,0.0,88,0.00,SCT,SKC,0.00,WeatherDisplay:10.37,2013-02-19 00:45:00,
2013-02-19 01:55:00,26.1,23.0,30.09,North,1,0.0,0.0,88,0.00,SCT,SKC,0.00,WeatherDisplay:10.37,2013-02-19 00:55:00,
2013-02-19 02:00:00,25.9,22.8,30.09,North,1,0.0,0.0,88,0.00,SCT,SKC,0.00,WeatherDisplay:10.37,2013-02-19 01:00:00,
2013-02-19 02:05:00,25.5,22.5,30.09,North,1,0.0,0.0,88,0.00,SCT,SKC,0.00,WeatherDisplay:10.37,2013-02-19 01:05:00,
2013-02-19 02:15:00,25.3,22.3,30.08,North,1,0.0,0.0,88,0.00,BKN,SKC,0.00,WeatherDisplay:10.37,2013-02-19 01:15:00,
2013-02-19 02:20:00,25.2,22.1,30.08,North,1,0.0,0.0,88,0.00,BKN,SKC,0.00,WeatherDisplay:10.37,2013-02-19 01:20:00,
2013-02-19 02:30:00,25.0,21.9,30.08,North,1,0.0,0.0,88,0.00,BKN,SKC,0.00,WeatherDisplay:10.37,2013-02-19 01:30:00,
2013-02-19 02:40:00,25.2,22.1,30.08,North,1,0.0,0.0,88,0.00,BKN,SKC,0.00,WeatherDisplay:10.37,2013-02-19 01:40:00,
2013-02-19 02:45:00,25.0,21.9,30.08,North,1,0.0,0.0,88,0.00,CLR,SKC,0.00,WeatherDisplay:10.37,2013-02-19 01:45:00,
2013-02-19 02:50:00,25.3,22.3,30.08,North,1,0.0,0.0,88,0.00,CLR,SKC,0.00,WeatherDisplay:10.37,2013-02-19 01:50:00,
2013-02-19 02:55:00,25.2,22.1,30.07,North,1,0.0,0.0,88,0.00,CLR,SKC,0.00,WeatherDisplay:10.37,2013-02-19 01:55:00,
2013-02-19 03:05:00,25.0,21.9,30.07,North,1,0.0,0.0,88,0.00,CLR,SKC,0.00,WeatherDisplay:10.37,2013-02-19 02:05:00,
2013-02-19 03:15:00,25.0,21.9,30.06,North,1,0.0,0.0,88,0.00,CLR,SKC,0.00,WeatherDisplay:10.37,2013-02-19 02:15:00,
2013-02-19 03:25:00,25.0,21.9,30.06,North,1,0.0,0.0,88,0.00,CLR,SKC,0.00,WeatherDisplay:10.37,2013-02-19 02:25:00,
2013-02-19 03:30:00,25.2,22.1,30.06,North,1,0.0,0.0,88,0.00,CLR,SKC,0.00,WeatherDisplay:10.37,2013-02-19 02:30:00,
2013-02-19 03:40:00,25.5,22.7,30.06,North,1,0.0,0.0,89,0.00,CLR,SKC,0.00,WeatherDisplay:10.37,2013-02-19 02:40:00,
2013-02-19 03:45:00,25.9,23.1,30.06,North,1,0.0,0.0,89,0.00,CLR,SKC,0.00,WeatherDisplay:10.37,2013-02-19 02:45:00,
2013-02-19 03:55:00,26.2,23.4,30.06,North,1,0.0,0.0,89,0.00,CLR,SKC,0.00,WeatherDisplay:10.37,2013-02-19 02:55:00,
2013-02-19 04:10:00,26.4,23.6,30.05,North,1,0.0,0.0,89,0.00,CLR,SKC,0.00,WeatherDisplay:10.37,2013-02-19 03:10:00,
2013-02-19 04:20:00,26.4,23.6,30.06,North,1,0.0,0.0,89,0.00,CLR,SKC,0.00,WeatherDisplay:10.37,2013-02-19 03:20:00,
2013-02-19 04:30:00,26.6,23.8,30.06,North,1,0.0,0.0,89,0.00,CLR,SKC,0.00,WeatherDisplay:10.37,2013-02-19 03:30:00,
2013-02-19 04:40:00,27.0,24.2,30.06,North,1,0.0,0.0,89,0.00,CLR,SKC,0.00,WeatherDisplay:10.37,2013-02-19 03:40:00,
2013-02-19 04:45:00,27.0,24.2,30.06,North,1,0.0,0.0,89,0.00,CLR,SKC,0.00,WeatherDisplay:10.37,2013-02-19 03:45:00,
2013-02-19 04:50:00,27.0,24.2,30.06,North,1,0.0,0.0,89,0.00,CLR,SKC,0.00,WeatherDisplay:10.37,2013-02-19 03:50:00,
2013-02-19 04:55:00,27.0,24.2,30.06,North,1,0.0,0.0,89,0.00,CLR,SKC,0.00,WeatherDisplay:10.37,2013-02-19 03:55:00,
2013-02-19 05:05:00,27.1,24.3,30.05,North,1,0.0,0.0,89,0.00,CLR,SKC,0.00,WeatherDisplay:10.37,2013-02-19 04:05:00,
2013-02-19 05:10:00,27.1,24.3,30.06,North,1,0.0,0.0,89,0.00,CLR,SKC,0.00,WeatherDisplay:10.37,2013-02-19 04:10:00,
2013-02-19 05:20:00,27.1,24.3,30.05,North,1,0.0,0.0,89,0.00,CLR,SKC,0.00,WeatherDisplay:10.37,2013-02-19 04:20:00,
2013-02-19 05:30:00,26.8,24.0,30.04,North,1,0.0,0.0,89,0.00,CLR,SKC,0.00,WeatherDisplay:10.37,2013-02-19 04:30:00,
2013-02-19 05:35:00,26.8,24.0,30.04,North,1,0.0,0.0,89,0.00,CLR,SKC,0.00,WeatherDisplay:10.37,2013-02-19 04:35:00,
2013-02-19 05:40:00,26.6,23.8,30.05,North,1,0.0,0.0,89,0.00,CLR,SKC,0.00,WeatherDisplay:10.37,2013-02-19 04:40:00,
2013-02-19 05:50:00,26.4,23.6,30.04,North,1,0.0,0.0,89,0.00,CLR,SKC,0.00,WeatherDisplay:10.37,2013-02-19 04:50:00,
2013-02-19 05:55:00,26.1,23.3,30.04,North,1,0.0,0.0,89,0.00,CLR,SKC,0.00,WeatherDisplay:10.37,2013-02-19 04:55:00,
2013-02-19 06:05:00,26.1,23.3,30.04,North,1,0.0,0.0,89,0.00,CLR,SKC,0.00,WeatherDisplay:10.37,2013-02-19 05:05:00,
2013-02-19 06:10:00,26.4,23.6,30.04,North,1,0.0,0.0,89,0.00,CLR,SKC,0.00,WeatherDisplay:10.37,2013-02-19 05:10:00,
2013-02-19 06:15:00,26.8,24.0,30.04,North,1,0.0,0.0,89,0.00,CLR,SKC,0.00,WeatherDisplay:10.37,2013-02-19 05:15:00,
2013-02-19 06:25:00,26.9,24.1,30.04,North,1,0.0,0.0,89,0.00,CLR,SKC,0.00,WeatherDisplay:10.37,2013-02-19 05:25:00,
2013-02-19 06:30:00,27.0,24.2,30.04,North,1,0.0,0.0,89,0.00,CLR,SKC,0.00,WeatherDisplay:10.37,2013-02-19 05:30:00,
2013-02-19 06:35:00,27.0,24.2,30.04,North,1,0.0,0.0,89,0.00,CLR,SKC,0.00,WeatherDisplay:10.37,2013-02-19 05:35:00,
2013-02-19 06:40:00,26.8,24.0,30.04,North,1,0.0,0.0,89,0.00,CLR,SKC,0.00,WeatherDisplay:10.37,2013-02-19 05:40:00,
2013-02-19 06:50:00,26.8,24.0,30.03,North,1,0.0,0.0,89,0.00,CLR,SKC,0.00,WeatherDisplay:10.37,2013-02-19 05:50:00,
2013-02-19 07:00:00,26.8,24.0,30.04,North,1,0.0,0.0,89,0.00,CLR,SKC,0.00,WeatherDisplay:10.37,2013-02-19 06:00:00,
2013-02-19 07:10:00,27.0,24.4,30.03,North,1,0.0,0.0,90,0.00,CLR,SKC,0.00,WeatherDisplay:10.37,2013-02-19 06:10:00,
2013-02-19 07:20:00,27.3,24.8,30.03,North,1,0.0,0.0,90,0.00,CLR,SKC,0.00,WeatherDisplay:10.37,2013-02-19 06:20:00,
2013-02-19 07:25:00,27.6,25.1,30.04,North,1,0.0,0.0,90,0.00,CLR,SKC,0.00,WeatherDisplay:10.37,2013-02-19 06:25:00,
2013-02-19 07:35:00,28.0,25.5,30.03,North,1,0.0,0.0,90,0.00,CLR,SKC,0.00,WeatherDisplay:10.37,2013-02-19 06:35:00,
2013-02-19 07:40:00,28.0,25.5,30.03,North,1,0.0,0.0,90,0.00,CLR,SKC,0.00,WeatherDisplay:10.37,2013-02-19 06:40:00,
2013-02-19 07:50:00,28.2,25.7,30.04,North,1,0.0,0.0,90,0.00,CLR,SKC,0.00,WeatherDisplay:10.37,2013-02-19 06:50:00,
2013-02-19 07:55:00,28.4,25.9,30.04,North,1,0.0,0.0,90,0.00,CLR,SKC,0.00,WeatherDisplay:10.37,2013-02-19 06:55:00,
2013-02-19 08:05:00,28.8,26.2,30.03,North,1,0.0,0.0,90,0.00,CLR,SKC,0.00,WeatherDisplay:10.37,2013-02-19 07:05:00,
2013-02-19 08:10:00,28.9,26.4,30.03,North,1,0.0,0.0,90,0.00,CLR,SKC,0.00,WeatherDisplay:10.37,2013-02-19 07:10:00,
2013-02-19 08:20:00,29.3,26.7,30.02,North,1,0.0,0.0,90,0.00,BKN,SKC,0.00,WeatherDisplay:10.37,2013-02-19 07:20:00,
2013-02-19 08:30:00,29.5,26.9,30.02,North,1,0.0,0.0,90,0.00,BKN,SKC,0.00,WeatherDisplay:10.37,2013-02-19 07:30:00,
2013-02-19 08:35:00,29.7,27.1,30.02,North,1,0.0,0.0,90,0.00,BKN,SKC,0.00,WeatherDisplay:10.37,2013-02-19 07:35:00,
2013-02-19 08:40:00,29.8,27.3,30.03,North,1,0.0,0.0,90,0.00,BKN,SKC,0.00,WeatherDisplay:10.37,2013-02-19 07:40:00,
2013-02-19 08:50:00,30.1,27.5,30.02,North,1,0.0,0.0,90,0.00,BKN,SKC,0.00,WeatherDisplay:10.37,2013-02-19 07:50:00,
2013-02-19 09:00:00,30.4,27.8,30.02,North,1,0.0,0.0,90,0.00,BKN,SKC,0.00,WeatherDisplay:10.37,2013-02-19 08:00:00,
2013-02-19 09:10:00,30.7,28.1,30.02,North,1,0.0,0.0,90,0.00,BKN,SKC,0.00,WeatherDisplay:10.37,2013-02-19 08:10:00,
2013-02-19 09:15:00,30.7,28.2,30.02,North,1,0.0,0.0,90,0.00,BKN,SKC,0.00,WeatherDisplay:10.37,2013-02-19 08:15:00,
2013-02-19 09:20:00,31.1,28.5,30.02,North,1,0.0,0.0,90,0.00,BKN,SKC,0.00,WeatherDisplay:10.37,2013-02-19 08:20:00,
2013-02-19 09:30:00,31.3,28.7,30.02,North,1,0.0,0.0,90,0.00,BKN,SKC,0.00,WeatherDisplay:10.37,2013-02-19 08:30:00,
2013-02-19 09:40:00,31.6,29.0,30.01,North,1,0.0,0.0,90,0.00,BKN,SKC,0.00,WeatherDisplay:10.37,2013-02-19 08:40:00,
2013-02-19 09:45:00,31.8,29.2,30.01,North,1,0.0,0.0,90,0.00,BKN,SKC,0.00,WeatherDisplay:10.37,2013-02-19 08:45:00,
2013-02-19 09:50:00,31.8,29.2,30.01,North,1,0.0,0.0,90,0.00,BKN,SKC,0.00,WeatherDisplay:10.37,2013-02-19 08:50:00,
2013-02-19 10:00:00,32.2,29.6,30.01,North,1,0.0,0.0,90,0.00,BKN,SKC,0.00,WeatherDisplay:10.37,2013-02-19 09:00:00,
2013-02-19 10:05:00,32.5,29.9,30.01,North,1,0.0,0.0,90,0.00,BKN,SKC,0.00,WeatherDisplay:10.37,2013-02-19 09:05:00,
2013-02-19 10:10:00,32.7,30.1,30.00,North,1,0.0,0.0,90,0.00,BKN,SKC,0.00,WeatherDisplay:10.37,2013-02-19 09:10:00,
2013-02-19 10:20:00,33.1,30.5,30.00,North,1,0.0,0.0,90,0.00,CLR,SKC,0.00,WeatherDisplay:10.37,2013-02-19 09:20:00,
2013-02-19 10:25:00,33.3,30.6,30.00,North,1,0.0,0.0,90,0.00,CLR,SKC,0.00,WeatherDisplay:10.37,2013-02-19 09:25:00,
2013-02-19 10:35:00,33.6,31.0,30.00,North,1,0.0,0.0,90,0.00,CLR,SKC,0.00,WeatherDisplay:10.37,2013-02-19 09:35:00,
2013-02-19 10:40:00,33.6,31.0,29.99,North,1,0.0,0.0,90,0.00,CLR,SKC,0.00,WeatherDisplay:10.37,2013-02-19 09:40:00,
2013-02-19 10:50:00,34.3,31.4,29.99,North,1,0.0,0.0,89,0.00,CLR,SKC,0.00,WeatherDisplay:10.37,2013-02-19 09:50:00,
2013-02-19 11:00:00,34.7,31.8,29.99,North,1,0.0,0.0,89,0.00,CLR,SKC,0.00,WeatherDisplay:10.37,2013-02-19 10:00:00,
2013-02-19 11:05:00,34.9,32.0,29.99,North,1,0.0,0.0,89,0.00,CLR,SKC,0.00,WeatherDisplay:10.37,2013-02-19 10:05:00,
2013-02-19 11:10:00,35.2,32.3,29.99,North,1,0.0,0.0,89,0.00,CLR,SKC,0.00,WeatherDisplay:10.37,2013-02-19 10:10:00,
2013-02-19 11:20:00,35.4,32.2,29.99,North,1,0.0,0.0,88,0.00,CLR,SKC,0.00,WeatherDisplay:10.37,2013-02-19 10:20:00,
2013-02-19 11:25:00,35.7,32.5,29.99,North,1,0.0,0.0,88,0.00,CLR,SKC,0.00,WeatherDisplay:10.37,2013-02-19 10:25:00,
2013-02-19 11:30:00,36.0,32.5,29.99,North,1,0.0,0.0,87,0.00,CLR,SKC,0.00,WeatherDisplay:10.37,2013-02-19 10:30:00,
2013-02-19 11:40:00,36.3,32.5,29.98,North,1,0.0,0.0,86,0.00,CLR,SKC,0.00,WeatherDisplay:10.37,2013-02-19 10:40:00,
2013-02-19 11:50:00,36.5,32.4,29.97,North,1,0.0,0.0,85,0.00,CLR,SKC,0.00,WeatherDisplay:10.37,2013-02-19 10:50:00,
2013-02-19 12:00:00,36.7,32.3,29.97,North,1,0.0,0.0,84,0.00,CLR,SKC,0.00,WeatherDisplay:10.37,2013-02-19 11:00:00,
2013-02-19 12:05:00,36.7,32.4,29.97,North,1,0.0,0.0,84,0.00,CLR,SKC,0.00,WeatherDisplay:10.37,2013-02-19 11:05:00,
2013-02-19 12:10:00,36.9,32.5,29.97,North,1,0.0,0.0,84,0.00,CLR,SKC,0.00,WeatherDisplay:10.37,2013-02-19 11:10:00,
2013-02-19 12:20:00,36.9,32.2,29.97,North,1,0.0,0.0,83,0.00,CLR,SKC,0.00,WeatherDisplay:10.37,2013-02-19 11:20:00,
2013-02-19 12:30:00,37.2,32.5,29.96,North,1,0.0,0.0,83,0.00,CLR,SKC,0.00,WeatherDisplay:10.37,2013-02-19 11:30:00,
2013-02-19 12:35:00,37.2,32.5,29.97,North,1,0.0,0.0,83,0.00,CLR,SKC,0.00,WeatherDisplay:10.37,2013-02-19 11:35:00,
2013-02-19 12:40:00,37.2,32.2,29.96,North,1,0.0,0.0,82,0.00,CLR,SKC,0.00,WeatherDisplay:10.37,2013-02-19 11:40:00,
2013-02-19 12:45:00,37.2,32.2,29.96,North,1,0.0,0.0,82,0.00,BKN,SKC,0.00,WeatherDisplay:10.37,2013-02-19 11:45:00,
2013-02-19 12:55:00,37.4,32.4,29.96,North,1,0.0,0.0,82,0.00,BKN,SKC,0.00,WeatherDisplay:10.37,2013-02-19 11:55:00,
2013-02-19 13:05:00,37.8,32.8,29.95,North,1,0.0,0.0,82,0.00,BKN,SKC,0.00,WeatherDisplay:10.37,2013-02-19 12:05:00,
2013-02-19 13:10:00,37.9,32.6,29.95,North,1,0.0,0.0,81,0.00,BKN,SKC,0.00,WeatherDisplay:10.37,2013-02-19 12:10:00,
2013-02-19 13:20:00,38.5,32.5,29.94,North,1,0.0,0.0,79,0.00,BKN,SKC,0.00,WeatherDisplay:10.37,2013-02-19 12:20:00,
2013-02-19 13:30:00,38.7,32.1,29.94,North,1,0.0,0.0,77,0.00,BKN,SKC,0.00,WeatherDisplay:10.37,2013-02-19 12:30:00,
2013-02-19 13:35:00,38.8,32.2,29.94,North,1,0.0,0.0,77,0.00,BKN,SKC,0.00,WeatherDisplay:10.37,2013-02-19 12:35:00,
2013-02-19 13:45:00,39.0,32.1,29.93,North,1,0.0,0.0,76,0.00,CLR,SKC,0.00,WeatherDisplay:10.37,2013-02-19 12:45:00,
2013-02-19 13:55:00,39.0,31.7,29.93,North,1,0.0,0.0,75,0.00,CLR,SKC,0.00,WeatherDisplay:10.37,2013-02-19 12:55:00,
2013-02-19 14:00:00,39.0,31.8,29.93,North,1,0.0,0.0,75,0.00,CLR,SKC,0.00,WeatherDisplay:10.37,2013-02-19 13:00:00,
2013-02-19 14:05:00,39.1,31.5,29.93,North,1,0.0,0.0,74,0.00,CLR,SKC,0.00,WeatherDisplay:10.37,2013-02-19 13:05:00,
2013-02-19 14:10:00,39.4,31.8,29.93,North,1,0.0,0.0,74,0.00,CLR,SKC,0.00,WeatherDisplay:10.37,2013-02-19 13:10:00,
2013-02-19 14:15:00,39.4,31.8,29.92,North,1,0.0,0.0,74,0.00,BKN,SKC,0.00,WeatherDisplay:10.37,2013-02-19 13:15:00,
2013-02-19 14:20:00,39.4,31.8,29.92,North,1,0.0,0.0,74,0.00,BKN,SKC,0.00,WeatherDisplay:10.37,2013-02-19 13:20:00,
2013-02-19 14:30:00,39.7,31.8,29.92,North,1,0.0,0.0,73,0.00,BKN,SKC,0.00,WeatherDisplay:10.37,2013-02-19 13:30:00,
2013-02-19 14:40:00,39.6,31.3,29.91,North,1,0.0,0.0,72,0.00,BKN,SKC,0.00,WeatherDisplay:10.37,2013-02-19 13:40:00,
2013-02-19 14:50:00,39.7,31.4,29.91,North,1,0.0,0.0,72,0.00,BKN,SKC,0.00,WeatherDisplay:10.37,2013-02-19 13:50:00,
2013-02-19 15:00:00,39.7,31.4,29.91,North,1,0.0,0.0,72,0.00,BKN,SKC,0.00,WeatherDisplay:10.37,2013-02-19 14:00:00,
2013-02-19 15:05:00,39.6,31.3,29.90,North,1,0.0,0.0,72,0.00,BKN,SKC,0.00,WeatherDisplay:10.37,2013-02-19 14:05:00,
2013-02-19 15:10:00,39.4,31.1,29.90,North,1,0.0,0.0,72,0.00,BKN,SKC,0.00,WeatherDisplay:10.37,2013-02-19 14:10:00,
2013-02-19 15:20:00,39.4,31.1,29.89,North,1,0.0,0.0,72,0.00,BKN,SKC,0.00,WeatherDisplay:10.37,2013-02-19 14:20:00,
2013-02-19 15:30:00,39.2,30.9,29.88,North,1,0.0,0.0,72,0.00,BKN,SKC,0.00,WeatherDisplay:10.37,2013-02-19 14:30:00,
2013-02-19 15:35:00,39.0,30.8,29.88,North,1,0.0,0.0,72,0.00,BKN,SKC,0.00,WeatherDisplay:10.37,2013-02-19 14:35:00,
2013-02-19 15:40:00,39.0,30.8,29.88,North,1,0.0,0.0,72,0.00,BKN,SKC,0.00,WeatherDisplay:10.37,2013-02-19 14:40:00,
2013-02-19 15:50:00,39.0,30.8,29.88,North,1,0.0,0.0,72,0.00,BKN,SKC,0.00,WeatherDisplay:10.37,2013-02-19 14:50:00,
2013-02-19 15:55:00,38.8,30.6,29.88,North,1,0.0,0.0,72,0.00,BKN,SKC,0.00,WeatherDisplay:10.37,2013-02-19 14:55:00,
2013-02-19 16:00:00,38.8,30.9,29.88,North,1,0.0,0.0,73,0.00,BKN,SKC,0.00,WeatherDisplay:10.37,2013-02-19 15:00:00,
2013-02-19 16:05:00,38.8,30.6,29.88,North,1,0.0,0.0,72,0.00,BKN,SKC,0.00,WeatherDisplay:10.37,2013-02-19 15:05:00,
2013-02-19 16:15:00,38.8,30.2,29.88,North,1,0.0,0.0,71,0.00,BKN,SKC,0.00,WeatherDisplay:10.37,2013-02-19 15:15:00,
2013-02-19 16:25:00,38.7,30.1,29.88,North,1,0.0,0.0,71,0.00,BKN,SKC,0.00,WeatherDisplay:10.37,2013-02-19 15:25:00,
2013-02-19 16:30:00,38.5,29.9,29.88,North,1,0.0,0.0,71,0.00,BKN,SKC,0.00,WeatherDisplay:10.37,2013-02-19 15:30:00,
2013-02-19 16:35:00,38.5,30.2,29.88,North,1,0.0,0.0,72,0.00,BKN,SKC,0.00,WeatherDisplay:10.37,2013-02-19 15:35:00,
2013-02-19 16:40:00,38.5,29.9,29.88,North,1,0.0,0.0,71,0.00,BKN,SKC,0.00,WeatherDisplay:10.37,2013-02-19 15:40:00,
2013-02-19 16:50:00,38.5,29.5,29.87,North,1,0.0,0.0,70,0.00,BKN,SKC,0.00,WeatherDisplay:10.37,2013-02-19 15:50:00,
2013-02-19 17:00:00,38.3,29.7,29.87,North,1,0.0,0.0,71,0.00,BKN,SKC,0.00,WeatherDisplay:10.37,2013-02-19 16:00:00,
2013-02-19 17:10:00,37.9,29.4,29.87,North,1,0.0,0.0,71,0.00,BKN,SKC,0.00,WeatherDisplay:10.37,2013-02-19 16:10:00,
2013-02-19 17:20:00,37.7,29.5,29.87,North,1,0.0,0.0,72,0.00,BKN,SKC,0.00,WeatherDisplay:10.37,2013-02-19 16:20:00,
2013-02-19 17:30:00,37.4,29.2,29.86,North,1,0.0,0.0,72,0.00,-SN,SKC,0.00,WeatherDisplay:10.37,2013-02-19 16:30:00,
2013-02-19 17:40:00,37.2,29.4,29.86,North,1,0.0,0.0,73,0.00,-SN,SKC,0.00,WeatherDisplay:10.37,2013-02-19 16:40:00,
2013-02-19 17:45:00,37.2,29.4,29.86,North,1,0.0,0.0,73,0.00,-SN,SKC,0.00,WeatherDisplay:10.37,2013-02-19 16:45:00,
2013-02-19 17:50:00,37.2,29.4,29.86,North,1,0.0,0.0,73,0.00,-SN,SKC,0.00,WeatherDisplay:10.37,2013-02-19 16:50:00,
2013-02-19 18:00:00,37.2,29.4,29.87,North,1,0.0,0.0,73,0.00,-SN,SKC,0.00,WeatherDisplay:10.37,2013-02-19 17:00:00,
2013-02-19 18:05:00,37.2,29.4,29.86,North,1,0.0,0.0,73,0.00,-SN,SKC,0.00,WeatherDisplay:10.37,2013-02-19 17:05:00,
2013-02-19 18:15:00,37.2,29.4,29.86,North,1,0.0,0.0,73,0.00,-SN,SKC,0.00,WeatherDisplay:10.37,2013-02-19 17:15:00,
2013-02-19 18:20:00,37.4,29.5,29.87,North,1,0.0,0.0,73,0.00,-SN,SKC,0.00,WeatherDisplay:10.37,2013-02-19 17:20:00,
2013-02-19 18:30:00,37.4,29.5,29.87,North,1,0.0,0.0,73,0.00,-SN,SKC,0.00,WeatherDisplay:10.37,2013-02-19 17:30:00,
2013-02-19 18:40:00,37.4,29.9,29.87,North,1,0.0,0.0,74,0.00,-SN,SKC,0.00,WeatherDisplay:10.37,2013-02-19 17:40:00,
2013-02-19 18:45:00,37.2,29.7,29.87,North,1,0.0,0.0,74,0.00,-SN,SKC,0.00,WeatherDisplay:10.37,2013-02-19 17:45:00,
2013-02-19 18:50:00,37.2,30.0,29.86,North,1,0.0,0.0,75,0.00,-SN,SKC,0.00,WeatherDisplay:10.37,2013-02-19 17:50:00,
2013-02-19 19:00:00,37.0,30.2,29.86,North,1,0.0,0.0,76,0.00,-SN,SKC,0.00,WeatherDisplay:10.37,2013-02-19 18:00:00,
2013-02-19 19:05:00,36.9,30.3,29.86,North,1,0.0,0.0,77,0.00,-SN,SKC,0.00,WeatherDisplay:10.37,2013-02-19 18:05:00,
2013-02-19 19:15:00,36.3,30.1,29.86,North,1,0.0,0.0,78,0.00,-SN,SKC,0.00,WeatherDisplay:10.37,2013-02-19 18:15:00,
2013-02-19 19:20:00,36.1,30.6,29.86,North,1,0.0,0.0,80,0.00,-SN,SKC,0.00,WeatherDisplay:10.37,2013-02-19 18:20:00,
2013-02-19 19:30:00,35.8,30.5,29.86,North,1,0.0,0.0,81,0.00,-DZ,SKC,0.00,WeatherDisplay:10.37,2013-02-19 18:30:00,
2013-02-19 19:40:00,35.7,30.7,29.86,North,1,0.0,0.0,82,0.00,-DZ,SKC,0.00,WeatherDisplay:10.37,2013-02-19 18:40:00,
2013-02-19 19:50:00,35.4,30.8,29.86,North,1,0.0,0.0,83,0.00,-DZ,SKC,0.00,WeatherDisplay:10.37,2013-02-19 18:50:00,
2013-02-19 19:55:00,35.3,30.7,29.86,North,1,0.0,0.0,83,0.00,-DZ,SKC,0.00,WeatherDisplay:10.37,2013-02-19 18:55:00,
2013-02-19 20:05:00,35.2,30.6,29.86,North,1,0.0,0.0,83,0.00,-DZ,SKC,0.00,WeatherDisplay:10.37,2013-02-19 19:05:00,
2013-02-19 20:10:00,35.2,30.6,29.86,North,1,0.0,0.0,83,0.00,-DZ,SKC,0.00,WeatherDisplay:10.37,2013-02-19 19:10:00,
2013-02-19 20:20:00,35.4,30.8,29.86,North,1,0.0,0.0,83,0.00,-DZ,SKC,0.00,WeatherDisplay:10.37,2013-02-19 19:20:00,
2013-02-19 20:25:00,35.4,30.8,29.86,North,1,0.0,0.0,83,0.00,-SN,SKC,0.00,WeatherDisplay:10.37,2013-02-19 19:25:00,
2013-02-19 20:35:00,35.6,30.9,29.86,North,1,0.0,0.0,83,0.00,-SN,SKC,0.00,WeatherDisplay:10.37,2013-02-19 19:35:00,
2013-02-19 20:40:00,35.8,30.8,29.86,North,1,0.0,0.0,82,0.00,-SN,SKC,0.00,WeatherDisplay:10.37,2013-02-19 19:40:00,
2013-02-19 20:45:00,35.8,30.8,29.86,North,1,0.0,0.0,82,0.00,-SN,SKC,0.00,WeatherDisplay:10.37,2013-02-19 19:45:00,
2013-02-19 20:50:00,35.8,30.8,29.86,North,1,0.0,0.0,82,0.00,-SN,SKC,0.00,WeatherDisplay:10.37,2013-02-19 19:50:00,
2013-02-19 20:55:00,35.8,30.8,29.87,North,1,0.0,0.0,82,0.00,-SN,SKC,0.00,WeatherDisplay:10.37,2013-02-19 19:55:00,
2013-02-19 21:05:00,35.8,30.5,29.87,North,1,0.0,0.0,81,0.00,-SN,SKC,0.00,WeatherDisplay:10.37,2013-02-19 20:05:00,
2013-02-19 21:15:00,35.8,30.8,29.86,North,1,0.0,0.0,82,0.00,-SN,SKC,0.00,WeatherDisplay:10.37,2013-02-19 20:15:00,
2013-02-19 21:20:00,35.8,30.8,29.86,North,1,0.0,0.0,82,0.00,-SN,SKC,0.00,WeatherDisplay:10.37,2013-02-19 20:20:00,
2013-02-19 21:30:00,35.3,30.3,29.87,North,1,0.0,0.0,82,0.00,-RA,SKC,0.00,WeatherDisplay:10.37,2013-02-19 20:30:00,
2013-02-19 21:40:00,34.7,30.4,29.88,North,1,0.0,0.0,84,0.00,-RA,SKC,0.00,WeatherDisplay:10.37,2013-02-19 20:40:00,
2013-02-19 21:50:00,34.2,29.8,29.88,North,1,0.0,0.0,84,0.00,-RA,SKC,0.00,WeatherDisplay:10.37,2013-02-19 20:50:00,
2013-02-19 21:55:00,33.8,29.8,29.88,North,1,0.0,0.0,85,0.00,-RA,SKC,0.00,WeatherDisplay:10.37,2013-02-19 20:55:00,
2013-02-19 22:00:00,33.6,29.6,29.88,North,1,0.0,0.0,85,0.00,-RA,SKC,0.00,WeatherDisplay:10.37,2013-02-19 21:00:00,
2013-02-19 22:10:00,33.2,29.4,29.87,North,1,0.0,0.0,86,0.00,-RA,SKC,0.00,WeatherDisplay:10.37,2013-02-19 21:10:00,
2013-02-19 22:15:00,33.1,29.3,29.87,North,1,0.0,0.0,86,0.00,-RA,SKC,0.00,WeatherDisplay:10.37,2013-02-19 21:15:00,
2013-02-19 22:20:00,32.9,29.2,29.87,North,1,0.0,0.0,86,0.00,-RA,SKC,0.00,WeatherDisplay:10.37,2013-02-19 21:20:00,
2013-02-19 22:30:00,32.7,29.0,29.87,North,1,0.0,0.0,86,0.00,-RA,SKC,0.00,WeatherDisplay:10.37,2013-02-19 21:30:00,
2013-02-19 22:35:00,32.7,29.3,29.87,North,1,0.0,0.0,87,0.00,-RA,SKC,0.00,WeatherDisplay:10.37,2013-02-19 21:35:00,
2013-02-19 22:45:00,32.5,29.1,29.87,North,1,0.0,0.0,87,0.00,-RA,SKC,0.00,WeatherDisplay:10.37,2013-02-19 21:45:00,
2013-02-19 22:50:00,32.5,29.1,29.87,North,1,0.0,0.0,87,0.00,-RA,SKC,0.00,WeatherDisplay:10.37,2013-02-19 21:50:00,
2013-02-19 23:00:00,32.5,29.1,29.87,North,1,0.0,0.0,87,0.00,-RA,SKC,0.00,WeatherDisplay:10.37,2013-02-19 22:00:00,
2013-02-19 23:05:00,32.5,29.1,29.87,North,1,0.0,0.0,87,0.00,-RA,SKC,0.00,WeatherDisplay:10.37,2013-02-19 22:05:00,
2013-02-19 23:15:00,32.5,29.4,29.87,North,1,0.0,0.0,88,0.00,-RA,SKC,0.00,WeatherDisplay:10.37,2013-02-19 22:15:00,
2013-02-19 23:20:00,32.5,29.4,29.88,North,1,0.0,0.0,88,0.00,-RA,SKC,0.00,WeatherDisplay:10.37,2013-02-19 22:20:00,
2013-02-19 23:30:00,32.5,29.4,29.87,North,1,0.0,0.0,88,0.00,-RA,SKC,0.00,WeatherDisplay:10.37,2013-02-19 22:30:00,
2013-02-19 23:35:00,32.6,29.5,29.88,North,1,0.0,0.0,88,0.00,-RA,SKC,0.00,WeatherDisplay:10.37,2013-02-19 22:35:00,
2013-02-19 23:45:00,32.7,29.6,29.87,North,1,0.0,0.0,88,0.00,-RA,SKC,0.00,WeatherDisplay:10.37,2013-02-19 22:45:00,
2013-02-19 23:50:00,32.7,29.8,29.87,North,1,0.0,0.0,89,0.00,-RA,SKC,0.00,WeatherDisplay:10.37,2013-02-19 22:50:00,